»·PEaware :: N2983C KMRY-KRDD

N2983C :: KMRY-KRDD

FLIGHT INFORMATION

Flight Status: Arrived
Operator: Privately registered:
United States
More flights under this callsign
Pilot: Roland C. (21206)
Aircraft: CESSNA 172 SKYHAWK
(C172)
More flights by this aircraft type
Origin: KMRY Monterey Peninsula
United States
Destination: KRDD Redding Mun
United States
More flights between these airports :: More routes between these airports
Route: +MRY5 SNS V111 MOD V113 LIN V23 RBL
File this flight plan on PilotEdge
Remarks:
Altitude:
(Current/Filed)
10,000ft
Speed:
(Current/Filed)
105kts
Departed: 24-Mar-20 12:21 PM
Arrived: 24-Mar-20 02:34 PM
Distance/Time
Traveled:
236nm/2:13
Distance/Time
To Go:
Arrived

Flight Plot

Page will automatically refresh every two minutes.

Flight plan parsing failed; only flown route is shown


Map Options




Map Legend


Flown Route
Filed Route
Departure Airport
Arrival Airport
Navaid (VOR, NDB)
Fix

Horizontal Profiles

Position Reports

Time Latitude Longitude Heading Altitude Ground
Speed
24-Mar-20 11:43 36.587419 -121.838753 292 235ft 0kts
24-Mar-20 11:44 36.587419 -121.838753 292 235ft 0kts
24-Mar-20 11:45 36.587419 -121.838753 292 235ft 0kts
24-Mar-20 11:46 36.587419 -121.838753 292 235ft 0kts
24-Mar-20 11:47 36.587419 -121.838753 292 235ft 0kts
24-Mar-20 11:48 36.587419 -121.838753 292 235ft 0kts
24-Mar-20 11:49 36.587419 -121.838753 292 235ft 0kts
24-Mar-20 11:50 36.587419 -121.838753 292 235ft 0kts
24-Mar-20 11:51 36.587419 -121.838753 292 235ft 0kts
24-Mar-20 11:52 36.587419 -121.838753 292 235ft 0kts
24-Mar-20 11:53 36.587419 -121.838753 292 235ft 0kts
24-Mar-20 11:54 36.587419 -121.838753 292 235ft 0kts
24-Mar-20 11:55 36.587419 -121.838753 292 235ft 0kts
24-Mar-20 11:56 36.587419 -121.838753 292 235ft 0kts
24-Mar-20 11:57 36.587419 -121.838753 292 235ft 0kts
24-Mar-20 11:58 36.587419 -121.838753 292 235ft 0kts
24-Mar-20 11:59 36.587419 -121.838753 292 235ft 0kts
24-Mar-20 12:00 36.587419 -121.838753 292 235ft 0kts
24-Mar-20 12:01 36.587419 -121.838753 292 235ft 0kts
24-Mar-20 12:02 36.587419 -121.838753 292 235ft 0kts
24-Mar-20 12:03 36.587419 -121.838753 292 235ft 0kts
24-Mar-20 12:04 36.587419 -121.838753 292 235ft 0kts
24-Mar-20 12:05 36.587419 -121.838753 292 235ft 0kts
24-Mar-20 12:06 36.587419 -121.838753 292 235ft 0kts
24-Mar-20 12:07 36.587419 -121.838753 292 235ft 0kts
24-Mar-20 12:08 36.587419 -121.838753 292 235ft 0kts
24-Mar-20 12:09 36.587419 -121.838753 292 235ft 0kts
24-Mar-20 12:10 36.587419 -121.838753 292 235ft 0kts
24-Mar-20 12:11 36.587419 -121.838753 292 235ft 0kts
24-Mar-20 12:12 36.587419 -121.838753 292 235ft 0kts
24-Mar-20 12:13 36.587419 -121.838753 292 235ft 0kts
24-Mar-20 12:14 36.587419 -121.838753 292 235ft 0kts
24-Mar-20 12:15 36.587419 -121.838753 292 235ft 0kts
24-Mar-20 12:16 36.587268 -121.838884 114 236ft 2kts
24-Mar-20 12:17 36.585745 -121.834998 103 274ft 19kts
24-Mar-20 12:18 36.585224 -121.833517 152 293ft 0kts
24-Mar-20 12:19 36.585224 -121.833517 152 293ft 0kts
24-Mar-20 12:20 36.589320 -121.845645 290 403ft 85kts
24-Mar-20 12:21 36.599918 -121.870683 305 1236ft 78kts
24-Mar-20 12:22 36.621360 -121.881436 332 1948ft 85kts
24-Mar-20 12:23 36.643272 -121.892513 332 2622ft 85kts
24-Mar-20 12:24 36.663386 -121.888727 83 3236ft 90kts
24-Mar-20 12:25 36.658148 -121.861307 103 3989ft 76kts
24-Mar-20 12:26 36.656128 -121.832740 94 4585ft 89kts
24-Mar-20 12:27 36.656009 -121.802213 90 5255ft 86kts
24-Mar-20 12:28 36.656645 -121.771689 88 5858ft 88kts
24-Mar-20 12:29 36.657887 -121.741076 91 6448ft 96kts
24-Mar-20 12:30 36.659012 -121.708246 94 7282ft 86kts
24-Mar-20 12:31 36.660482 -121.673681 88 7972ft 98kts
24-Mar-20 12:32 36.661152 -121.644497 85 8688ft 83kts
24-Mar-20 12:33 36.662511 -121.614116 92 9208ft 92kts
24-Mar-20 12:34 36.679799 -121.593403 23 9746ft 93kts
24-Mar-20 12:35 36.702701 -121.577461 21 10023ft 106kts
24-Mar-20 12:36 36.731638 -121.557878 22 10008ft 135kts
24-Mar-20 12:37 36.764643 -121.535685 22 10006ft 134kts
24-Mar-20 12:38 36.796986 -121.514051 22 10009ft 132kts
24-Mar-20 12:39 36.828789 -121.492986 22 10011ft 127kts
24-Mar-20 12:40 36.860054 -121.472247 22 10012ft 126kts
24-Mar-20 12:41 36.891161 -121.451549 22 10012ft 126kts
24-Mar-20 12:42 36.922396 -121.430770 22 10013ft 128kts
24-Mar-20 12:43 36.953422 -121.410123 22 10013ft 133kts
24-Mar-20 12:44 36.986137 -121.388301 23 10013ft 134kts
24-Mar-20 12:45 37.019356 -121.366243 21 10013ft 134kts
24-Mar-20 12:46 37.052937 -121.344687 23 10010ft 135kts
24-Mar-20 12:47 37.086040 -121.322737 23 10010ft 134kts
24-Mar-20 12:48 37.119117 -121.300616 24 10007ft 133kts
24-Mar-20 12:49 37.151974 -121.278608 24 10001ft 133kts
24-Mar-20 12:50 37.184870 -121.256540 24 9994ft 134kts
24-Mar-20 12:51 37.218357 -121.234085 26 10040ft 143kts
24-Mar-20 12:52 37.255453 -121.209289 27 9988ft 152kts
24-Mar-20 12:54 37.293450 -121.183467 24 9943ft 154kts
24-Mar-20 12:55 37.330057 -121.158732 27 9925ft 152kts
24-Mar-20 12:56 37.367183 -121.133745 27 9988ft 151kts
24-Mar-20 12:57 37.403964 -121.108977 25 10005ft 149kts
24-Mar-20 12:58 37.440773 -121.083779 27 10004ft 145kts
24-Mar-20 12:59 37.475982 -121.060329 25 9953ft 139kts
24-Mar-20 13:00 37.509654 -121.037492 24 9996ft 138kts
24-Mar-20 13:01 37.543820 -121.014484 27 9986ft 143kts
24-Mar-20 13:02 37.578230 -120.990999 26 9984ft 133kts
24-Mar-20 13:03 37.609919 -120.969426 26 9993ft 133kts
24-Mar-20 13:04 37.645314 -120.960691 351 9992ft 131kts
24-Mar-20 13:05 37.681726 -120.963470 349 9991ft 130kts
24-Mar-20 13:06 37.717797 -120.966942 349 9991ft 130kts
24-Mar-20 13:07 37.753784 -120.970554 349 9991ft 130kts
24-Mar-20 13:08 37.790038 -120.974260 349 9987ft 130kts
24-Mar-20 13:09 37.825984 -120.977911 349 9979ft 130kts
24-Mar-20 13:10 37.862357 -120.981629 349 9969ft 131kts
24-Mar-20 13:11 37.898668 -120.985364 349 9961ft 130kts
24-Mar-20 13:12 37.934937 -120.989082 349 9955ft 130kts
24-Mar-20 13:13 37.971027 -120.992768 348 9956ft 130kts
24-Mar-20 13:13 38.001338 -120.995907 348 9955ft 130kts
24-Mar-20 13:15 38.044076 -121.000291 348 9972ft 133kts
24-Mar-20 13:16 38.078112 -121.013289 307 9972ft 122kts
24-Mar-20 13:16 38.098227 -121.039386 304 9970ft 125kts
24-Mar-20 13:17 38.121612 -121.072879 301 9949ft 125kts
24-Mar-20 13:19 38.147756 -121.110877 300 9953ft 121kts
24-Mar-20 13:19 38.166113 -121.138101 300 9947ft 122kts
24-Mar-20 13:20 38.188113 -121.170183 298 9940ft 120kts
24-Mar-20 13:21 38.209807 -121.202637 298 9938ft 121kts
24-Mar-20 13:22 38.231200 -121.234423 300 9937ft 116kts
24-Mar-20 13:23 38.252857 -121.266551 299 9929ft 123kts
24-Mar-20 13:24 38.274800 -121.298874 300 9947ft 119kts
24-Mar-20 13:25 38.296108 -121.330342 299 9955ft 117kts
24-Mar-20 13:26 38.317114 -121.361963 299 9944ft 115kts
24-Mar-20 13:27 38.338049 -121.393162 300 9946ft 116kts
24-Mar-20 13:28 38.359691 -121.424855 300 9940ft 117kts
24-Mar-20 13:29 38.380847 -121.456434 299 9940ft 117kts
24-Mar-20 13:30 38.402101 -121.488263 298 9936ft 119kts
24-Mar-20 13:31 38.423114 -121.519607 299 9941ft 117kts
24-Mar-20 13:32 38.446278 -121.549183 329 9956ft 129kts
24-Mar-20 13:33 38.481261 -121.562269 334 9947ft 131kts
24-Mar-20 13:34 38.516461 -121.573559 336 9951ft 130kts
24-Mar-20 13:35 38.552322 -121.585092 337 9942ft 134kts
24-Mar-20 13:36 38.588009 -121.596519 337 9945ft 129kts
24-Mar-20 13:37 38.623102 -121.607864 336 9942ft 132kts
24-Mar-20 13:38 38.658479 -121.618765 338 9958ft 130kts
24-Mar-20 13:39 38.693889 -121.630280 336 9942ft 131kts
24-Mar-20 13:40 38.728949 -121.641434 337 9947ft 132kts
24-Mar-20 13:41 38.764339 -121.652762 336 9953ft 130kts
24-Mar-20 13:42 38.800133 -121.664097 335 9961ft 131kts
24-Mar-20 13:43 38.836635 -121.675924 336 9954ft 136kts
24-Mar-20 13:44 38.873619 -121.687517 336 9943ft 135kts
24-Mar-20 13:45 38.909996 -121.699536 335 9952ft 133kts
24-Mar-20 13:46 38.946427 -121.711112 335 9939ft 133kts
24-Mar-20 13:47 38.982374 -121.722644 336 9927ft 135kts
24-Mar-20 13:48 39.018251 -121.734214 336 9932ft 131kts
24-Mar-20 13:49 39.053605 -121.745528 336 9930ft 129kts
24-Mar-20 13:50 39.088561 -121.756806 336 9931ft 129kts
24-Mar-20 13:51 39.123123 -121.768064 334 9925ft 128kts
24-Mar-20 13:52 39.157249 -121.780847 333 9926ft 127kts
24-Mar-20 13:53 39.191403 -121.793780 333 9926ft 127kts
24-Mar-20 13:54 39.225461 -121.806689 333 9926ft 127kts
24-Mar-20 13:55 39.259505 -121.819619 333 9926ft 127kts
24-Mar-20 13:56 39.293666 -121.832593 333 9926ft 128kts
24-Mar-20 13:57 39.327386 -121.845210 332 10035ft 120kts
24-Mar-20 13:58 39.360215 -121.857901 332 10050ft 126kts
24-Mar-20 13:59 39.394108 -121.871112 331 10050ft 127kts
24-Mar-20 14:00 39.427664 -121.886127 329 10050ft 127kts
24-Mar-20 14:01 39.461164 -121.901852 328 10050ft 127kts
24-Mar-20 14:02 39.494007 -121.918473 327 10050ft 127kts
24-Mar-20 14:03 39.526956 -121.935458 327 10050ft 127kts
24-Mar-20 14:04 39.560029 -121.952586 327 10038ft 128kts
24-Mar-20 14:05 39.593183 -121.969787 327 10025ft 128kts
24-Mar-20 14:06 39.626384 -121.987030 327 10011ft 129kts
24-Mar-20 14:07 39.659506 -122.004323 324 10048ft 134kts
24-Mar-20 14:08 39.698829 -122.022270 343 10653ft 146kts
24-Mar-20 14:09 39.747685 -122.026918 349 8254ft 171kts
24-Mar-20 14:10 39.791046 -122.039528 343 6390ft 149kts
24-Mar-20 14:11 39.828568 -122.053418 326 5113ft 134kts
24-Mar-20 14:12 39.860844 -122.074063 345 4282ft 134kts
24-Mar-20 14:13 39.896588 -122.081243 348 4028ft 130kts
24-Mar-20 14:14 39.933233 -122.092504 345 4026ft 138kts
24-Mar-20 14:15 39.970313 -122.105056 344 4027ft 137kts
24-Mar-20 14:16 40.007258 -122.117801 344 4027ft 137kts
24-Mar-20 14:17 40.044285 -122.130639 344 4027ft 137kts
24-Mar-20 14:18 40.081227 -122.143488 344 4028ft 137kts
24-Mar-20 14:19 40.117956 -122.156268 344 4021ft 136kts
24-Mar-20 14:20 40.154223 -122.168902 344 4022ft 135kts
24-Mar-20 14:21 40.190511 -122.181559 344 4022ft 134kts
24-Mar-20 14:22 40.226839 -122.194245 344 4022ft 134kts
24-Mar-20 14:23 40.262919 -122.206855 344 4022ft 134kts
24-Mar-20 14:24 40.298993 -122.219476 344 4023ft 134kts
24-Mar-20 14:25 40.334905 -122.232058 344 4023ft 134kts
24-Mar-20 14:26 40.371059 -122.244703 344 3968ft 136kts
24-Mar-20 14:27 40.408366 -122.256489 348 3391ft 136kts
24-Mar-20 14:28 40.444891 -122.265364 353 2237ft 129kts
24-Mar-20 14:29 40.477870 -122.275181 345 1638ft 116kts
24-Mar-20 14:30 40.509452 -122.276616 4 1502ft 111kts
24-Mar-20 14:31 40.538390 -122.278628 319 1499ft 94kts
24-Mar-20 14:32 40.530671 -122.295036 175 794ft 66kts
24-Mar-20 14:33 40.515359 -122.294822 182 504ft 23kts
24-Mar-20 14:34 40.514237 -122.295983 268 504ft 0kts
24-Mar-20 14:35 40.514237 -122.295983 268 504ft 0kts
24-Mar-20 14:36 40.511902 -122.297045 228 499ft 14kts
24-Mar-20 14:37 40.510698 -122.298202 88 500ft 2kts
24-Mar-20 14:38 40.510489 -122.297831 179 499ft 0kts

Navigation Log

Ident Type
Flight plan parsing failed, navigation log unavailable